Time;durP1;ratioP1;P1;durP2;ratioP2;P2;SDS_P1;SDS_P2;PMS_P1;PMS_P2;Temp;Humidity;BMP_temperature;BMP_pressure;BME280_temperature;BME280_humidity;BME280_pressure;Samples;Min_cycle;Max_cycle;Signal;HPM_P1;HPM_P2
2022/04/26 03:36:27;;;;;;;8.13;6.57;;;;;19.80;100273.00;;;;2077885;28;20678;-46
2022/04/26 03:37:29;;;;;;;7.30;6.60;;;;;19.80;100276.00;;;;2079162;28;20225;-46
2022/04/26 03:38:29;;;;;;;7.88;7.03;;;;;19.80;100282.00;;;;2079415;28;20221;-46
2022/04/26 03:39:30;;;;;;;6.67;6.07;;;;;19.80;100281.00;;;;2079319;28;20581;-46
2022/04/26 03:40:30;;;;;;;7.53;6.83;;;;;19.80;100284.00;;;;2072668;28;20217;-46
2022/04/26 03:41:31;;;;;;;6.90;6.30;;;;;19.80;100286.00;;;;2071347;28;20225;-47
2022/04/26 03:42:31;;;;;;;7.80;7.10;;;;;19.80;100281.00;;;;2071318;28;20217;-46
2022/04/26 03:43:32;;;;;;;8.77;6.93;;;;;19.80;100282.00;;;;2071223;28;20457;-47
2022/04/26 03:44:32;;;;;;;6.83;6.23;;;;;19.80;100285.00;;;;2071260;28;20218;-47
2022/04/26 03:45:32;;;;;;;7.10;6.40;;;;;19.80;100283.00;;;;2070525;28;20215;-47
2022/04/26 03:46:32;;;;;;;6.93;6.33;;;;;19.80;100283.00;;;;2071030;28;20245;-46
2022/04/26 03:47:33;;;;;;;6.77;6.17;;;;;19.80;100280.00;;;;2071019;28;20210;-47
2022/04/26 03:48:33;;;;;;;7.00;6.30;;;;;19.80;100280.00;;;;2071310;28;20683;-47
2022/04/26 03:49:34;;;;;;;7.73;6.90;;;;;19.80;100284.00;;;;2071033;28;20222;-48
2022/04/26 03:50:34;;;;;;;6.90;6.23;;;;;19.80;100288.00;;;;2071424;28;20218;-47
2022/04/26 03:51:34;;;;;;;6.60;6.10;;;;;19.80;100287.00;;;;2071192;28;20214;-46
2022/04/26 03:52:34;;;;;;;7.10;6.50;;;;;19.80;100284.00;;;;2071362;28;20221;-47
2022/04/26 03:53:35;;;;;;;6.27;5.77;;;;;19.80;100281.00;;;;2071455;28;20218;-47
2022/04/26 03:54:35;;;;;;;6.47;5.87;;;;;19.80;100284.00;;;;2069937;28;20321;-46
2022/04/26 03:55:35;;;;;;;7.07;6.47;;;;;19.70;100286.00;;;;2070787;28;20218;-46
2022/04/26 03:56:36;;;;;;;6.37;5.87;;;;;19.80;100288.00;;;;2071235;28;20224;-47
2022/04/26 03:57:37;;;;;;;6.47;5.97;;;;;19.80;100290.00;;;;2070907;28;20214;-47
2022/04/26 03:58:37;;;;;;;6.40;5.90;;;;;19.80;100290.00;;;;2071311;28;20226;-47
2022/04/26 03:59:37;;;;;;;6.87;6.17;;;;;19.80;100297.00;;;;2071320;28;20314;-46
2022/04/26 04:00:38;;;;;;;6.30;5.70;;;;;19.70;100287.00;;;;2071245;28;20222;-47
2022/04/26 04:01:39;;;;;;;7.07;6.40;;;;;19.80;100297.00;;;;2071306;28;20218;-47
2022/04/26 04:02:39;;;;;;;6.63;6.03;;;;;19.70;100293.00;;;;2070867;28;20218;-47
2022/04/26 04:03:39;;;;;;;6.80;6.13;;;;;19.50;100301.00;;;;2071331;28;20450;-46
2022/04/26 04:04:40;;;;;;;6.73;6.17;;;;;19.70;100294.00;;;;2071368;28;20229;-47
2022/04/26 04:05:42;;;;;;;6.90;6.30;;;;;19.70;100301.00;;;;2070654;28;20245;-46
2022/04/26 04:06:42;;;;;;;6.80;6.20;;;;;19.70;100294.00;;;;2070747;28;20964;-48
2022/04/26 04:07:42;;;;;;;6.43;5.93;;;;;19.70;100303.00;;;;2071247;28;20325;-49
2022/04/26 04:08:43;;;;;;;6.47;5.90;;;;;19.70;100303.00;;;;2071463;28;20206;-48
2022/04/26 04:09:43;;;;;;;5.93;5.47;;;;;19.70;100305.00;;;;2071475;28;20284;-48
2022/04/26 04:10:43;;;;;;;5.83;5.33;;;;;19.70;100307.00;;;;2071370;28;20229;-47
2022/04/26 04:11:44;;;;;;;7.93;6.40;;;;;19.70;100307.00;;;;2071462;28;20210;-48
2022/04/26 04:12:44;;;;;;;6.70;6.10;;;;;19.70;100309.00;;;;2071174;28;20210;-46
2022/04/26 04:13:44;;;;;;;6.60;6.00;;;;;19.80;100307.00;;;;2071249;28;21303;-46
2022/04/26 04:14:45;;;;;;;6.77;5.60;;;;;19.70;100307.00;;;;2071161;28;20670;-48
2022/04/26 04:15:46;;;;;;;6.87;6.27;;;;;19.70;100314.00;;;;2070288;28;20719;-47
2022/04/26 04:16:46;;;;;;;6.45;5.95;;;;;19.70;100311.00;;;;2071220;28;20206;-46
2022/04/26 04:17:47;;;;;;;6.27;5.77;;;;;19.70;100315.00;;;;2071057;28;20310;-47
2022/04/26 04:20:07;;;;;;;6.65;6.15;;;;;19.70;100312.00;;;;2075668;28;20300;-47
2022/04/26 04:21:08;;;;;;;6.47;5.93;;;;;19.70;100313.00;;;;2079179;28;20221;-47
2022/04/26 04:22:08;;;;;;;6.22;5.63;;;;;19.70;100317.00;;;;2079327;28;20897;-48
2022/04/26 04:23:09;;;;;;;5.90;5.50;;;;;19.70;100313.00;;;;2079016;28;20222;-47
2022/04/26 04:24:09;;;;;;;6.27;5.67;;;;;19.70;100321.00;;;;2076091;28;20341;-46
2022/04/26 04:25:10;;;;;;;6.80;6.20;;;;;19.70;100319.00;;;;2071114;28;20217;-47
2022/04/26 04:26:10;;;;;;;6.23;5.73;;;;;19.70;100319.00;;;;2070268;28;20214;-47
2022/04/26 04:27:10;;;;;;;6.40;5.80;;;;;19.70;100303.00;;;;2070960;28;20222;-47
2022/04/26 04:28:11;;;;;;;6.00;5.50;;;;;19.70;100318.00;;;;2071017;28;20556;-47
2022/04/26 04:29:11;;;;;;;6.20;5.60;;;;;19.70;100319.00;;;;2071101;28;21022;-47
2022/04/26 04:30:12;;;;;;;6.37;5.87;;;;;19.70;100317.00;;;;2070959;28;20632;-47
2022/04/26 04:31:12;;;;;;;6.23;5.63;;;;;19.70;100322.00;;;;2071170;28;20296;-47
2022/04/26 04:32:12;;;;;;;6.10;5.50;;;;;19.70;100313.00;;;;2071070;28;20237;-46
2022/04/26 04:33:13;;;;;;;5.80;5.23;;;;;19.70;100320.00;;;;2071267;28;20590;-46
2022/04/26 04:34:13;;;;;;;6.30;5.80;;;;;19.70;100322.00;;;;2071200;28;20214;-47
2022/04/26 04:35:13;;;;;;;5.10;4.70;;;;;19.70;100313.00;;;;2071150;28;20297;-47
2022/04/26 04:36:15;;;;;;;6.33;5.70;;;;;19.70;100323.00;;;;2070393;28;20224;-47
2022/04/26 04:37:15;;;;;;;6.32;5.72;;;;;19.70;100326.00;;;;2070182;28;20379;-46
2022/04/26 04:38:15;;;;;;;6.47;5.87;;;;;19.70;100322.00;;;;2071263;28;20301;-47
2022/04/26 04:39:19;;;;;;;7.83;6.07;;;;;19.70;100313.00;;;;2076394;28;20217;-46
2022/04/26 04:40:19;;;;;;;6.60;6.00;;;;;19.70;100323.00;;;;2075200;28;20224;-47
2022/04/26 04:41:20;;;;;;;6.27;5.67;;;;;19.70;100322.00;;;;2078746;28;20220;-48
2022/04/26 04:42:21;;;;;;;7.07;5.00;;;;;19.70;100339.00;;;;2071096;28;20263;-47
2022/04/26 04:43:21;;;;;;;5.40;4.75;;;;;19.70;100335.00;;;;2071019;28;20218;-47
2022/04/26 04:44:22;;;;;;;5.57;5.17;;;;;19.70;100346.00;;;;2071213;28;20756;-47
2022/04/26 04:45:22;;;;;;;6.03;5.23;;;;;19.70;100321.00;;;;2070634;28;20590;-46
2022/04/26 04:46:22;;;;;;;6.23;5.70;;;;;19.70;100339.00;;;;2069979;28;20218;-47
2022/04/26 04:47:23;;;;;;;5.40;5.00;;;;;19.70;100330.00;;;;2071284;28;20206;-50
2022/04/26 04:48:23;;;;;;;5.37;4.97;;;;;19.70;100326.00;;;;2071384;28;20217;-47
2022/04/26 04:49:23;;;;;;;5.50;5.00;;;;;19.70;100342.00;;;;2071266;28;20260;-48
2022/04/26 04:50:24;;;;;;;5.40;4.83;;;;;19.70;100342.00;;;;2070213;28;20287;-48
2022/04/26 04:51:24;;;;;;;5.57;5.10;;;;;19.70;100301.00;;;;2070491;28;20244;-47
2022/04/26 04:52:25;;;;;;;5.23;4.73;;;;;19.70;100330.00;;;;2071184;28;20739;-48
2022/04/26 04:53:25;;;;;;;6.10;4.93;;;;;19.70;100338.00;;;;2070260;28;20590;-47
2022/04/26 04:54:25;;;;;;;6.13;5.53;;;;;19.70;100337.00;;;;2070354;28;20230;-48
2022/04/26 04:55:26;;;;;;;5.50;5.00;;;;;19.70;100340.00;;;;2070100;28;20276;-47
2022/04/26 04:56:26;;;;;;;5.63;5.13;;;;;19.70;100338.00;;;;2076455;28;20625;-47
2022/04/26 04:57:27;;;;;;;5.70;5.20;;;;;19.70;100338.00;;;;2077833;28;20228;-46
2022/04/26 04:58:27;;;;;;;4.87;4.47;;;;;19.60;100340.00;;;;2079190;28;20321;-48
2022/04/26 04:59:28;;;;;;;5.23;4.83;;;;;19.70;100269.00;;;;2078897;28;20308;-46
2022/04/26 05:00:28;;;;;;;5.18;4.75;;;;;19.70;100346.00;;;;2079256;28;20233;-46
2022/04/26 05:01:29;;;;;;;4.80;4.40;;;;;19.60;100348.00;;;;2079189;28;20209;-47
2022/04/26 05:02:29;;;;;;;6.33;5.73;;;;;19.60;100344.00;;;;2079157;28;20272;-50
2022/04/26 05:03:29;;;;;;;6.73;5.40;;;;;19.70;100359.00;;;;2079047;28;20218;-47
2022/04/26 05:04:30;;;;;;;5.33;4.63;;;;;19.70;100347.00;;;;2079216;28;20244;-47
2022/04/26 05:05:30;;;;;;;4.90;4.40;;;;;19.60;100354.00;;;;2072056;28;20210;-48
2022/04/26 05:06:30;;;;;;;6.37;5.80;;;;;19.60;100357.00;;;;2070391;28;20222;-48
2022/04/26 05:07:31;;;;;;;4.97;4.47;;;;;19.60;100358.00;;;;2070320;28;20214;-46
2022/04/26 05:08:31;;;;;;;4.70;4.30;;;;;19.60;100364.00;;;;2071017;28;20801;-46
2022/04/26 05:09:31;;;;;;;5.23;4.30;;;;;19.60;100352.00;;;;2071541;28;20592;-48
2022/04/26 05:10:33;;;;;;;4.70;4.30;;;;;19.60;100361.00;;;;2071540;28;20636;-47
2022/04/26 05:11:33;;;;;;;5.13;4.60;;;;;19.60;100355.00;;;;2071998;28;20214;-47
2022/04/26 05:12:34;;;;;;;4.37;3.87;;;;;19.70;100354.00;;;;2079476;28;20261;-47
2022/04/26 05:13:35;;;;;;;4.97;4.45;;;;;19.70;100358.00;;;;2079268;28;20715;-46
2022/04/26 05:14:35;;;;;;;4.77;4.37;;;;;19.70;100360.00;;;;2079587;28;20270;-47
2022/04/26 05:15:38;;;;;;;6.00;4.37;;;;;19.70;100370.00;;;;2075112;28;20218;-47
2022/04/26 05:16:38;;;;;;;4.20;3.80;;;;;19.70;100370.00;;;;2071449;28;20229;-45
2022/04/26 05:17:38;;;;;;;4.50;4.10;;;;;19.70;100369.00;;;;2075082;28;20320;-45
2022/04/26 05:18:39;;;;;;;4.70;4.10;;;;;19.80;100365.00;;;;2071408;28;20222;-45
2022/04/26 05:19:39;;;;;;;6.00;4.50;;;;;19.80;100367.00;;;;2071234;28;20222;-46
2022/04/26 05:20:39;;;;;;;5.60;5.10;;;;;19.80;100371.00;;;;2071250;28;20249;-45
2022/04/26 05:21:40;;;;;;;6.00;5.50;;;;;19.70;100375.00;;;;2071156;28;20222;-46
2022/04/26 05:25:19;;;;;;;7.03;5.55;;;;;19.60;100369.00;;;;2078159;28;20209;-45
2022/04/26 05:26:19;;;;;;;7.27;5.17;;;;;19.60;100372.00;;;;2074092;28;20602;-46
2022/04/26 05:27:26;;;;;;;5.63;4.97;;;;;19.60;100370.00;;;;2070246;28;20890;-45
2022/04/26 05:28:27;;;;;;;6.80;5.20;;;;;19.60;100365.00;;;;2072768;28;20217;-45
2022/04/26 05:29:27;;;;;;;5.93;5.33;;;;;19.60;100372.00;;;;2086193;28;20216;-45
2022/04/26 05:30:28;;;;;;;6.10;5.50;;;;;19.60;100370.00;;;;2081957;28;20214;-44
2022/04/26 05:31:28;;;;;;;5.60;5.03;;;;;19.60;100363.00;;;;2073744;28;20246;-44
2022/04/26 05:32:28;;;;;;;4.57;4.13;;;;;19.60;100363.00;;;;2072850;28;20601;-46
2022/04/26 05:33:29;;;;;;;5.20;4.20;;;;;19.60;100373.00;;;;2075235;28;20694;-46
2022/04/26 05:34:29;;;;;;;5.80;4.20;;;;;19.70;100381.00;;;;2070349;28;20210;-45
2022/04/26 05:35:29;;;;;;;4.60;4.20;;;;;19.70;100375.00;;;;2070308;28;20217;-47
2022/04/26 05:36:30;;;;;;;6.27;4.50;;;;;19.70;100381.00;;;;2066824;28;20246;-48
2022/04/26 05:37:33;;;;;;;7.50;4.43;;;;;19.70;100379.00;;;;2070264;28;20202;-46
2022/04/26 05:38:34;;;;;;;5.75;4.63;;;;;19.70;100387.00;;;;2070224;28;20216;-45
2022/04/26 05:39:34;;;;;;;5.30;4.33;;;;;19.70;100382.00;;;;2070271;28;20792;-44
2022/04/26 05:40:35;;;;;;;7.20;5.00;;;;;19.70;100388.00;;;;2076142;28;20501;-47
2022/04/26 05:41:35;;;;;;;5.93;5.20;;;;;19.70;100391.00;;;;2072059;28;20214;-47
2022/04/26 05:42:36;;;;;;;5.50;5.00;;;;;19.70;100309.00;;;;2078124;28;20292;-46
2022/04/26 05:43:36;;;;;;;5.00;4.50;;;;;19.70;100378.00;;;;2069414;28;20256;-45
2022/04/26 05:44:38;;;;;;;4.97;4.30;;;;;19.70;100397.00;;;;2069115;28;20751;-46
2022/04/26 05:45:39;;;;;;;9.18;5.32;;;;;19.70;100387.00;;;;2078211;28;20205;-47
2022/04/26 05:46:39;;;;;;;5.13;4.37;;;;;19.70;100383.00;;;;2078258;28;20296;-47
2022/04/26 05:47:45;;;;;;;4.93;4.27;;;;;19.70;100391.00;;;;2077661;28;20217;-46
2022/04/26 05:48:46;;;;;;;6.25;5.60;;;;;19.70;100387.00;;;;2069814;28;20248;-46
2022/04/26 05:49:46;;;;;;;5.57;5.07;;;;;19.70;100390.00;;;;2070492;28;20232;-47
2022/04/26 05:50:47;;;;;;;6.20;5.60;;;;;19.70;100393.00;;;;2078370;28;20373;-47
2022/04/26 05:51:49;;;;;;;7.53;6.27;;;;;19.70;100403.00;;;;2077254;28;20228;-45
2022/04/26 05:52:49;;;;;;;6.97;6.28;;;;;19.70;100390.00;;;;2069545;28;20293;-46
2022/04/26 05:53:49;;;;;;;9.23;7.83;;;;;19.70;100379.00;;;;2068801;28;20226;-48
2022/04/26 05:54:53;;;;;;;10.20;7.30;;;;;19.70;100393.00;;;;2071032;28;20628;-48
2022/04/26 05:55:53;;;;;;;9.73;8.32;;;;;19.70;100396.00;;;;2077746;28;20280;-45
2022/04/26 05:56:54;;;;;;;10.00;8.33;;;;;19.70;100353.00;;;;2078192;28;20748;-46
2022/04/26 05:57:54;;;;;;;14.00;10.30;;;;;19.70;100395.00;;;;2076753;28;20741;-46
2022/04/26 05:58:55;;;;;;;14.50;10.50;;;;;19.70;100396.00;;;;2077373;28;20215;-46
2022/04/26 05:59:55;;;;;;;13.20;10.40;;;;;19.70;100395.00;;;;2075732;28;20283;-47
2022/04/26 06:00:55;;;;;;;16.17;12.87;;;;;19.70;100403.00;;;;2070392;28;20253;-46
2022/04/26 06:01:55;;;;;;;17.47;13.63;;;;;19.70;100392.00;;;;2070427;28;20226;-46
2022/04/26 06:02:56;;;;;;;22.90;16.37;;;;;19.70;100395.00;;;;2074720;28;20213;-46
2022/04/26 06:03:57;;;;;;;20.47;15.23;;;;;19.70;100398.00;;;;2078607;28;20210;-46
2022/04/26 06:04:57;;;;;;;18.47;13.63;;;;;19.70;100403.00;;;;2078276;28;20384;-46
2022/04/26 06:05:57;;;;;;;21.13;15.87;;;;;19.70;100401.00;;;;2077033;28;20447;-46
2022/04/26 06:06:58;;;;;;;23.07;16.33;;;;;19.70;100409.00;;;;2077966;28;20212;-46
2022/04/26 06:07:59;;;;;;;27.10;20.63;;;;;19.70;100407.00;;;;2073198;28;20238;-46
2022/04/26 06:08:59;;;;;;;25.97;20.63;;;;;19.70;100416.00;;;;2069694;28;20214;-46
2022/04/26 06:10:01;;;;;;;28.57;20.80;;;;;19.70;100404.00;;;;2070370;28;20973;-46
2022/04/26 06:11:01;;;;;;;28.98;23.13;;;;;19.70;100407.00;;;;2070191;28;20218;-46
2022/04/26 06:12:01;;;;;;;30.47;23.80;;;;;19.70;100405.00;;;;2068829;28;20222;-47
2022/04/26 06:13:02;;;;;;;28.07;22.93;;;;;19.70;100410.00;;;;2070033;28;20225;-47
2022/04/26 06:14:02;;;;;;;30.20;22.53;;;;;19.70;100397.00;;;;2070422;28;20210;-46
2022/04/26 06:15:03;;;;;;;39.83;27.00;;;;;19.70;100406.00;;;;2070083;28;20221;-46
2022/04/26 06:16:04;;;;;;;27.33;21.70;;;;;19.70;100403.00;;;;2069427;28;20953;-47
2022/04/26 06:17:04;;;;;;;29.63;23.40;;;;;19.70;100406.00;;;;2067762;28;20242;-46
2022/04/26 06:18:04;;;;;;;30.73;24.63;;;;;19.70;100408.00;;;;2069435;28;20214;-46
2022/04/26 06:19:05;;;;;;;30.80;24.30;;;;;19.70;100405.00;;;;2069764;28;20245;-46
2022/04/26 06:20:05;;;;;;;30.83;22.87;;;;;19.70;100400.00;;;;2069982;28;20225;-46
2022/04/26 06:21:06;;;;;;;31.30;22.53;;;;;19.70;100402.00;;;;2070695;28;20218;-46
2022/04/26 06:22:06;;;;;;;26.03;19.83;;;;;19.70;100403.00;;;;2070500;28;20206;-47
2022/04/26 06:23:07;;;;;;;25.73;19.30;;;;;19.60;100408.00;;;;2070094;28;20218;-46
2022/04/26 06:24:07;;;;;;;29.23;21.40;;;;;19.60;100407.00;;;;2069875;28;20283;-47
2022/04/26 06:25:07;;;;;;;32.67;22.70;;;;;19.60;100405.00;;;;2070140;28;20688;-46
2022/04/26 06:26:08;;;;;;;32.63;22.67;;;;;19.60;100411.00;;;;2069531;28;20210;-46
2022/04/26 06:27:08;;;;;;;32.00;20.70;;;;;19.60;100407.00;;;;2077502;28;20214;-47
2022/04/26 06:28:09;;;;;;;36.53;23.60;;;;;19.60;100408.00;;;;2078252;28;20213;-46
2022/04/26 06:29:09;;;;;;;33.57;25.40;;;;;19.60;100405.00;;;;2078056;28;20220;-46
2022/04/26 06:30:10;;;;;;;32.10;24.10;;;;;19.60;100405.00;;;;2075060;28;20453;-46
2022/04/26 06:31:11;;;;;;;41.40;28.40;;;;;19.60;100409.00;;;;2073964;28;20233;-45
2022/04/26 06:32:11;;;;;;;30.03;23.53;;;;;19.60;100401.00;;;;2069760;28;20449;-44
2022/04/26 06:33:11;;;;;;;40.73;28.67;;;;;19.60;100417.00;;;;2070741;28;20211;-45
2022/04/26 06:34:12;;;;;;;40.43;28.87;;;;;19.60;100429.00;;;;2070111;28;20257;-45
2022/04/26 06:35:12;;;;;;;39.03;27.03;;;;;19.60;100415.00;;;;2070305;28;20221;-45
2022/04/26 06:36:12;;;;;;;34.60;27.13;;;;;19.60;100417.00;;;;2069831;28;20697;-47
2022/04/26 06:37:14;;;;;;;36.43;26.93;;;;;19.60;100420.00;;;;2070050;28;20943;-45
2022/04/26 06:38:16;;;;;;;41.63;29.42;;;;;19.60;100418.00;;;;2070032;28;20199;-48
2022/04/26 06:39:16;;;;;;;41.22;28.70;;;;;19.60;100421.00;;;;2069379;28;20206;-47
2022/04/26 06:40:16;;;;;;;40.43;29.87;;;;;19.60;100420.00;;;;2069805;28;20710;-46
2022/04/26 06:41:17;;;;;;;44.07;32.90;;;;;19.60;100427.00;;;;2070956;28;20764;-45
2022/04/26 06:42:17;;;;;;;41.73;30.43;;;;;19.60;100421.00;;;;2069679;28;20695;-45
2022/04/26 06:43:18;;;;;;;43.20;30.50;;;;;19.60;100424.00;;;;2070158;28;20218;-45
2022/04/26 06:44:19;;;;;;;45.10;31.97;;;;;19.60;100426.00;;;;2070327;28;20237;-47
2022/04/26 06:45:19;;;;;;;37.07;29.27;;;;;19.60;100423.00;;;;2069633;28;20445;-46
2022/04/26 06:46:19;;;;;;;42.20;30.63;;;;;19.60;100424.00;;;;2069784;28;21075;-47
2022/04/26 06:47:20;;;;;;;42.60;31.80;;;;;19.60;100420.00;;;;2069816;28;20202;-47
2022/04/26 06:48:20;;;;;;;43.80;32.57;;;;;19.60;100423.00;;;;2077619;28;20206;-47
2022/04/26 06:49:20;;;;;;;41.90;29.63;;;;;19.60;100433.00;;;;2078004;28;20212;-47
2022/04/26 06:50:21;;;;;;;43.03;31.23;;;;;19.60;100421.00;;;;2078243;28;20308;-46
2022/04/26 06:51:22;;;;;;;45.73;33.17;;;;;19.60;100422.00;;;;2078214;28;20292;-47
2022/04/26 06:52:22;;;;;;;42.97;29.50;;;;;19.60;100423.00;;;;2077958;28;20491;-46
2022/04/26 06:53:22;;;;;;;40.20;30.70;;;;;19.60;100419.00;;;;2072561;28;20657;-47
2022/04/26 06:54:23;;;;;;;42.37;30.90;;;;;19.60;100420.00;;;;2069620;28;20253;-47
2022/04/26 06:55:23;;;;;;;44.67;32.27;;;;;19.60;100421.00;;;;2069195;28;20218;-47
2022/04/26 06:56:23;;;;;;;41.83;31.57;;;;;19.60;100427.00;;;;2069941;28;20218;-47
2022/04/26 06:57:24;;;;;;;41.70;30.90;;;;;19.60;100415.00;;;;2077835;28;20224;-47
2022/04/26 06:58:24;;;;;;;42.40;31.80;;;;;19.60;100421.00;;;;2078192;28;20213;-46
2022/04/26 06:59:24;;;;;;;41.43;29.43;;;;;19.60;100424.00;;;;2077821;28;20297;-47
2022/04/26 07:00:25;;;;;;;43.07;30.70;;;;;19.60;100417.00;;;;2078145;28;20209;-47
2022/04/26 07:01:25;;;;;;;41.33;29.47;;;;;19.60;100422.00;;;;2074243;28;20217;-47
2022/04/26 07:02:25;;;;;;;40.80;30.07;;;;;19.60;100423.00;;;;2078176;28;20210;-47
2022/04/26 07:03:26;;;;;;;39.57;28.67;;;;;19.60;100417.00;;;;2077998;28;20221;-47
2022/04/26 07:04:27;;;;;;;42.43;31.70;;;;;19.60;100424.00;;;;2077852;28;20214;-47
2022/04/26 07:05:27;;;;;;;36.90;28.23;;;;;19.60;100422.00;;;;2077187;28;20491;-46
2022/04/26 07:06:27;;;;;;;36.90;29.10;;;;;19.60;100428.00;;;;2072191;28;20233;-47
2022/04/26 07:07:28;;;;;;;41.20;30.00;;;;;19.60;100426.00;;;;2069722;28;20230;-46
2022/04/26 07:08:28;;;;;;;42.47;28.60;;;;;19.60;100435.00;;;;2070052;28;20676;-47
2022/04/26 07:09:28;;;;;;;39.23;28.27;;;;;19.60;100436.00;;;;2070473;28;20233;-47
2022/04/26 07:10:29;;;;;;;36.50;27.50;;;;;19.60;100428.00;;;;2071395;28;20221;-47
2022/04/26 07:11:29;;;;;;;36.03;27.30;;;;;19.60;100435.00;;;;2071441;28;20225;-47
2022/04/26 07:12:30;;;;;;;40.10;29.20;;;;;19.60;100435.00;;;;2071486;28;20313;-47
2022/04/26 07:13:30;;;;;;;37.73;29.20;;;;;19.60;100436.00;;;;2071468;28;20569;-47
2022/04/26 07:14:30;;;;;;;36.10;27.17;;;;;19.60;100434.00;;;;2070735;28;20221;-47
2022/04/26 07:15:31;;;;;;;37.30;28.80;;;;;19.60;100426.00;;;;2069831;28;20252;-46
2022/04/26 07:16:31;;;;;;;35.03;26.70;;;;;19.60;100437.00;;;;2071430;28;20218;-46
2022/04/26 07:17:32;;;;;;;35.93;26.90;;;;;19.60;100430.00;;;;2071377;28;20220;-46
2022/04/26 07:18:33;;;;;;;34.73;26.53;;;;;19.60;100431.00;;;;2071324;28;20221;-46
2022/04/26 07:19:35;;;;;;;31.92;25.50;;;;;19.60;100425.00;;;;2070866;28;20226;-46
2022/04/26 07:20:35;;;;;;;34.55;26.10;;;;;19.60;100430.00;;;;2071260;28;20245;-47
2022/04/26 07:21:35;;;;;;;33.97;26.43;;;;;19.60;100432.00;;;;2071339;28;20206;-47
2022/04/26 07:22:36;;;;;;;35.00;26.20;;;;;19.60;100435.00;;;;2072213;28;20218;-46
2022/04/26 07:23:36;;;;;;;34.10;25.00;;;;;19.60;100433.00;;;;2074396;28;20214;-46
2022/04/26 07:24:37;;;;;;;36.87;26.40;;;;;19.60;100436.00;;;;2071277;28;20218;-46
2022/04/26 07:25:37;;;;;;;33.73;26.20;;;;;19.60;100438.00;;;;2074563;28;20256;-46
2022/04/26 07:26:38;;;;;;;33.43;25.70;;;;;19.60;100445.00;;;;2071504;28;20222;-47
2022/04/26 07:27:40;;;;;;;33.90;26.50;;;;;19.60;100444.00;;;;2071250;28;20835;-46
2022/04/26 07:28:40;;;;;;;31.88;23.77;;;;;19.60;100444.00;;;;2071285;28;20218;-47
2022/04/26 07:29:42;;;;;;;35.47;26.53;;;;;19.40;100441.00;;;;2071162;28;20219;-46
2022/04/26 07:30:44;;;;;;;34.17;25.67;;;;;19.60;100445.00;;;;2070938;28;20260;-47
2022/04/26 07:31:44;;;;;;;32.60;25.30;;;;;19.60;100447.00;;;;2071364;28;20752;-47
2022/04/26 07:34:22;;;;;;;32.58;25.88;;;;;19.60;100445.00;;;;2071568;28;20305;-45
2022/04/26 07:35:22;;;;;;;29.33;22.77;;;;;19.60;100444.00;;;;2070642;28;20218;-47
2022/04/26 07:36:23;;;;;;;31.47;24.80;;;;;19.60;100451.00;;;;2071474;28;20218;-47
2022/04/26 07:37:23;;;;;;;30.20;23.80;;;;;19.60;100445.00;;;;2071091;28;20214;-46
2022/04/26 07:38:23;;;;;;;27.47;22.03;;;;;19.60;100454.00;;;;2071261;28;20221;-48
2022/04/26 07:39:24;;;;;;;31.83;23.23;;;;;19.60;100458.00;;;;2071630;28;20212;-47
2022/04/26 07:40:24;;;;;;;30.00;22.53;;;;;19.60;100451.00;;;;2071299;28;20229;-46
2022/04/26 07:41:24;;;;;;;29.23;21.97;;;;;19.60;100450.00;;;;2070648;28;20215;-46
2022/04/26 07:42:25;;;;;;;28.43;21.50;;;;;19.60;100445.00;;;;2075057;28;20210;-45
2022/04/26 07:43:25;;;;;;;28.43;21.60;;;;;19.60;100450.00;;;;2079094;28;20217;-45
2022/04/26 07:44:25;;;;;;;26.53;20.50;;;;;19.50;100304.00;;;;2078764;28;20224;-45
2022/04/26 07:45:26;;;;;;;30.83;22.17;;;;;19.60;100450.00;;;;2075168;28;20230;-46
2022/04/26 07:46:26;;;;;;;25.80;19.87;;;;;19.50;100447.00;;;;2071411;28;20225;-46
2022/04/26 07:47:26;;;;;;;30.70;21.73;;;;;19.60;100468.00;;;;2064101;28;20210;-46
2022/04/26 07:48:27;;;;;;;28.20;19.23;;;;;19.60;100457.00;;;;2078703;28;20327;-45
2022/04/26 07:49:27;;;;;;;26.50;19.33;;;;;19.50;100455.00;;;;2068593;28;20242;-45
2022/04/26 07:50:28;;;;;;;24.20;20.17;;;;;19.60;100456.00;;;;2076915;28;20355;-45
2022/04/26 07:51:28;;;;;;;24.40;19.70;;;;;19.50;100454.00;;;;2075402;28;20210;-46
2022/04/26 07:52:28;;;;;;;27.23;21.20;;;;;19.50;100456.00;;;;2079508;28;20221;-46
2022/04/26 07:53:29;;;;;;;27.43;20.50;;;;;19.60;100456.00;;;;2069218;28;20214;-45
2022/04/26 07:54:29;;;;;;;23.10;19.50;;;;;19.60;100459.00;;;;2062992;28;20215;-44
2022/04/26 07:55:30;;;;;;;28.87;20.37;;;;;19.50;100462.00;;;;2069204;28;20210;-46
2022/04/26 07:56:31;;;;;;;29.70;21.67;;;;;19.50;100466.00;;;;2071590;28;20549;-45
2022/04/26 07:57:31;;;;;;;25.35;19.92;;;;;19.50;100461.00;;;;2071071;28;20206;-47
2022/04/26 07:58:32;;;;;;;24.87;18.87;;;;;19.50;100471.00;;;;2071367;28;20225;-47
2022/04/26 07:59:32;;;;;;;27.15;17.50;;;;;19.50;100415.00;;;;2071184;28;20226;-46
2022/04/26 08:00:33;;;;;;;23.70;17.50;;;;;19.50;100455.00;;;;2071143;28;21336;-47
2022/04/26 08:01:35;;;;;;;24.50;19.63;;;;;19.50;100464.00;;;;2071458;28;20775;-47
2022/04/26 08:02:35;;;;;;;26.90;18.92;;;;;19.50;100460.00;;;;2071223;28;20225;-48
2022/04/26 08:03:35;;;;;;;22.37;18.30;;;;;19.50;100460.00;;;;2070619;28;20233;-47
2022/04/26 08:04:36;;;;;;;23.37;18.40;;;;;19.50;100472.00;;;;2071622;28;20249;-47
2022/04/26 08:05:37;;;;;;;23.00;18.00;;;;;19.50;100480.00;;;;2078506;28;20279;-46
2022/04/26 08:06:37;;;;;;;23.70;17.53;;;;;19.50;100464.00;;;;2079387;28;20822;-51
2022/04/26 08:07:39;;;;;;;22.90;17.40;;;;;19.50;100467.00;;;;2078750;28;20588;-46
2022/04/26 08:08:40;;;;;;;22.40;17.80;;;;;19.50;100462.00;;;;2079091;28;20267;-47
2022/04/26 08:09:40;;;;;;;19.17;16.20;;;;;19.50;100465.00;;;;2079092;28;20217;-47
2022/04/26 08:10:40;;;;;;;21.63;17.13;;;;;19.60;100470.00;;;;2078280;28;20217;-47
2022/04/26 08:11:41;;;;;;;19.40;16.87;;;;;19.50;100471.00;;;;2078722;28;20547;-47
2022/04/26 08:12:42;;;;;;;21.30;15.80;;;;;19.50;100481.00;;;;2078985;28;20637;-47
2022/04/26 08:13:42;;;;;;;22.53;16.93;;;;;19.50;100483.00;;;;2079053;28;20214;-47
2022/04/26 08:14:43;;;;;;;21.27;16.67;;;;;19.50;100481.00;;;;2079263;28;20460;-46
2022/04/26 08:15:43;;;;;;;22.37;17.00;;;;;19.60;100486.00;;;;2078426;28;20275;-46
2022/04/26 08:16:43;;;;;;;20.27;15.43;;;;;19.50;100485.00;;;;2078682;28;20251;-48
2022/04/26 08:17:44;;;;;;;19.10;15.50;;;;;19.50;100488.00;;;;2077769;28;20318;-47
2022/04/26 08:18:44;;;;;;;25.07;17.90;;;;;19.50;100484.00;;;;2079014;28;20738;-47
2022/04/26 08:19:44;;;;;;;24.33;18.77;;;;;19.50;100479.00;;;;2078534;28;20233;-47
2022/04/26 08:20:45;;;;;;;21.77;17.53;;;;;19.50;100478.00;;;;2078463;28;20224;-47
2022/04/26 08:21:45;;;;;;;25.73;19.17;;;;;19.50;100493.00;;;;2078938;28;20228;-47
2022/04/26 08:22:46;;;;;;;20.00;16.50;;;;;19.50;100414.00;;;;2079121;28;20588;-47
2022/04/26 08:27:43;;;;;;;24.52;20.13;;;;;19.50;100493.00;;;;2078532;28;20209;-46
2022/04/26 08:28:45;;;;;;;24.23;18.60;;;;;19.50;100492.00;;;;2079010;28;20214;-47
2022/04/26 08:29:46;;;;;;;23.90;19.30;;;;;19.50;100497.00;;;;2079046;28;20324;-47
2022/04/26 08:30:47;;;;;;;26.35;19.58;;;;;19.50;100502.00;;;;2078823;28;20223;-46
2022/04/26 08:31:47;;;;;;;25.43;18.90;;;;;19.50;100488.00;;;;2078948;28;20697;-46
2022/04/26 08:32:48;;;;;;;25.20;19.93;;;;;19.50;100505.00;;;;2078920;28;20272;-47
2022/04/26 08:33:48;;;;;;;26.53;19.70;;;;;19.50;100495.00;;;;2079107;28;20218;-47
2022/04/26 08:34:49;;;;;;;25.63;20.63;;;;;19.50;100495.00;;;;2078897;28;20500;-47
2022/04/26 08:35:49;;;;;;;25.17;19.87;;;;;19.50;100494.00;;;;2078334;28;20215;-47
2022/04/26 08:36:49;;;;;;;23.20;19.60;;;;;19.50;100494.00;;;;2078996;28;20213;-47
2022/04/26 08:37:50;;;;;;;22.10;18.67;;;;;19.50;100496.00;;;;2079011;28;20213;-46
2022/04/26 08:38:50;;;;;;;25.60;20.50;;;;;19.50;100494.00;;;;2073529;28;20214;-47
2022/04/26 08:39:55;;;;;;;24.90;20.03;;;;;19.50;100502.00;;;;2070713;28;20217;-47
2022/04/26 08:40:55;;;;;;;25.95;21.00;;;;;19.50;100498.00;;;;2054085;28;20224;-47